createdAt,value
2024-04-30T04:08:27.275Z,0.50
2024-04-30T04:09:27.239Z,0.50
2024-04-30T04:10:27.298Z,0.50
2024-04-30T04:11:27.322Z,0.50
2024-04-30T04:12:27.261Z,0.50
2024-04-30T04:13:27.352Z,0.50
2024-04-30T04:14:27.290Z,0.51
2024-04-30T04:15:27.284Z,0.51
2024-04-30T04:16:27.280Z,0.50
2024-04-30T04:17:27.347Z,0.50
2024-04-30T04:18:27.347Z,0.50
2024-04-30T04:19:27.288Z,0.50
2024-04-30T04:20:27.288Z,0.51
2024-04-30T04:21:27.287Z,0.53
2024-04-30T04:22:27.321Z,0.50
2024-04-30T04:23:27.281Z,0.51
2024-04-30T04:24:27.282Z,0.50
2024-04-30T04:25:27.297Z,0.50
2024-04-30T04:26:27.285Z,0.53
2024-04-30T04:27:27.291Z,0.52
2024-04-30T04:28:27.312Z,0.55
2024-04-30T04:29:27.323Z,0.52
2024-04-30T04:30:27.285Z,0.51
2024-04-30T04:31:34.526Z,0.50
2024-04-30T04:32:34.593Z,0.50
2024-04-30T04:33:34.452Z,0.50
2024-04-30T04:34:34.552Z,0.50
2024-04-30T04:35:34.453Z,0.50
2024-04-30T04:36:34.445Z,0.50
2024-04-30T04:37:34.450Z,0.54
2024-04-30T04:38:34.488Z,0.53
2024-04-30T04:39:34.440Z,0.55
2024-04-30T04:40:34.499Z,0.54
2024-04-30T04:41:34.464Z,0.54
2024-04-30T04:42:34.456Z,0.57
2024-04-30T04:43:34.472Z,0.60
2024-04-30T04:44:34.457Z,0.59
2024-04-30T04:45:34.456Z,0.63
2024-04-30T04:46:34.522Z,0.66
2024-04-30T04:47:34.534Z,0.66
2024-04-30T04:48:34.573Z,0.62
2024-04-30T04:49:34.487Z,0.61
2024-04-30T04:50:34.459Z,0.60
2024-04-30T04:51:34.471Z,0.63
2024-04-30T04:52:34.565Z,0.66
2024-04-30T04:53:34.456Z,0.67
2024-04-30T04:54:34.459Z,0.62
2024-04-30T04:55:34.483Z,0.57
2024-04-30T04:56:34.552Z,0.56
2024-04-30T04:57:34.455Z,0.60
2024-04-30T04:58:34.535Z,0.53
2024-04-30T04:59:34.475Z,0.55
2024-04-30T05:00:34.484Z,0.52
2024-04-30T05:01:34.506Z,0.59
2024-04-30T05:02:34.505Z,0.51
2024-04-30T05:03:34.512Z,0.58
2024-04-30T05:04:34.528Z,0.57
2024-04-30T05:05:34.455Z,0.54
2024-04-30T05:06:34.445Z,0.52
2024-04-30T05:07:34.542Z,0.51
2024-04-30T05:08:34.465Z,0.51
2024-04-30T05:09:34.450Z,0.50
2024-04-30T05:10:34.608Z,0.55
2024-04-30T05:11:34.497Z,0.54
2024-04-30T05:12:35.496Z,0.54
2024-04-30T05:13:34.584Z,0.55
2024-04-30T05:14:34.469Z,0.55
2024-04-30T05:15:34.485Z,0.59
2024-04-30T05:16:34.539Z,0.61
2024-04-30T05:17:34.605Z,0.65
2024-04-30T05:18:34.480Z,0.70
2024-04-30T05:19:34.760Z,0.74
2024-04-30T05:20:34.507Z,0.73
2024-04-30T05:21:34.491Z,0.73
2024-04-30T05:22:34.614Z,0.74
2024-04-30T05:23:34.515Z,0.70
2024-04-30T05:24:34.475Z,0.74
2024-04-30T05:25:34.544Z,0.75
2024-04-30T05:26:34.473Z,0.75
2024-04-30T05:27:34.492Z,0.74
2024-04-30T05:28:34.643Z,0.78
2024-04-30T05:29:34.484Z,0.80
2024-04-30T05:30:34.470Z,0.82
2024-04-30T05:31:34.570Z,0.91
2024-04-30T05:32:34.536Z,0.93
2024-04-30T05:33:34.704Z,0.96
2024-04-30T05:34:34.565Z,1.01
2024-04-30T05:35:34.498Z,1.05
2024-04-30T05:36:34.481Z,1.10
2024-04-30T05:37:34.565Z,1.25
2024-04-30T05:38:34.487Z,1.33
2024-04-30T05:39:34.481Z,1.44
2024-04-30T05:40:34.516Z,1.44
2024-04-30T05:41:34.485Z,1.62
2024-04-30T05:42:34.532Z,1.68
2024-04-30T05:43:34.541Z,1.70
2024-04-30T05:44:34.476Z,2.01
2024-04-30T05:45:34.507Z,2.14
2024-04-30T05:46:34.535Z,2.73
2024-04-30T05:47:34.510Z,2.94
2024-04-30T05:48:34.486Z,3.10
2024-04-30T05:49:34.722Z,3.42
2024-04-30T05:50:34.517Z,4.01
2024-04-30T05:51:34.526Z,4.23
2024-04-30T05:52:34.678Z,4.58
2024-04-30T05:53:34.531Z,4.92
2024-04-30T05:54:34.568Z,5.07
2024-04-30T05:55:34.673Z,5.31
2024-04-30T05:56:34.708Z,5.84
2024-04-30T05:57:34.804Z,5.83
2024-04-30T05:58:34.974Z,6.65
2024-04-30T05:59:34.909Z,8.24
2024-04-30T06:00:34.989Z,9.75
2024-04-30T06:01:35.027Z,11.53
2024-04-30T06:02:35.090Z,13.07
2024-04-30T06:03:35.176Z,14.59
2024-04-30T06:04:35.301Z,16.33
2024-04-30T06:05:35.335Z,20.05
2024-04-30T06:06:35.237Z,23.65
2024-04-30T06:07:35.306Z,28.25
2024-04-30T06:08:37.307Z,29.63
2024-04-30T06:09:35.281Z,30.02
2024-04-30T06:10:35.322Z,34.49
2024-04-30T06:11:35.360Z,49.78
2024-04-30T06:12:36.095Z,77.16
2024-04-30T06:13:35.406Z,128.57
2024-04-30T06:14:35.289Z,134.29
2024-04-30T06:15:35.289Z,136.24
2024-04-30T06:16:35.347Z,124.83
2024-04-30T06:17:35.350Z,102.64
2024-04-30T06:18:35.342Z,78.51
2024-04-30T06:19:35.421Z,66.86
2024-04-30T06:20:35.311Z,58.50
2024-04-30T06:21:38.406Z,51.89
2024-04-30T06:22:35.391Z,51.60
2024-04-30T06:23:35.304Z,47.26
2024-04-30T06:24:35.315Z,45.68
2024-04-30T06:25:35.386Z,44.88
2024-04-30T06:26:35.317Z,46.00
2024-04-30T06:27:35.290Z,46.17
2024-04-30T06:28:35.341Z,44.48
2024-04-30T06:29:35.303Z,43.11
2024-04-30T06:30:35.323Z,41.22
2024-04-30T06:31:35.354Z,41.07
2024-04-30T06:32:35.411Z,40.39
2024-04-30T06:33:35.412Z,38.37
2024-04-30T06:34:35.356Z,36.99
2024-04-30T06:35:35.297Z,37.04
2024-04-30T06:36:35.323Z,35.42
2024-04-30T06:37:35.341Z,32.92
2024-04-30T06:38:35.330Z,30.38
2024-04-30T06:39:35.332Z,30.08
2024-04-30T06:40:35.335Z,28.82
2024-04-30T06:41:35.344Z,29.54
2024-04-30T06:42:35.339Z,30.87
2024-04-30T06:43:35.408Z,31.23
2024-04-30T06:44:35.341Z,30.25
2024-04-30T06:45:35.345Z,33.09
2024-04-30T06:46:35.361Z,36.30
2024-04-30T06:47:35.373Z,35.07
2024-04-30T06:48:35.433Z,31.06
2024-04-30T06:49:35.356Z,27.58
2024-04-30T06:50:35.323Z,26.04
2024-04-30T06:51:35.318Z,23.42
2024-04-30T06:52:35.399Z,21.32
2024-04-30T06:53:35.461Z,20.19
2024-04-30T06:54:35.357Z,19.77
2024-04-30T06:55:35.518Z,17.22
2024-04-30T06:56:35.353Z,15.95
2024-04-30T06:57:35.365Z,14.54
2024-04-30T06:58:35.436Z,13.18
2024-04-30T06:59:35.389Z,12.77
2024-04-30T07:00:35.377Z,12.48
2024-04-30T07:01:35.423Z,11.63
2024-04-30T07:02:35.364Z,10.39
2024-04-30T07:03:35.386Z,9.80
2024-04-30T07:04:35.477Z,9.22
2024-04-30T07:05:35.377Z,8.44
2024-04-30T07:06:35.404Z,7.86
2024-04-30T07:07:35.528Z,7.21
2024-04-30T07:08:35.380Z,6.95
2024-04-30T07:09:35.406Z,6.53
2024-04-30T07:10:35.416Z,6.48
2024-04-30T07:11:35.434Z,6.06
2024-04-30T07:12:35.364Z,5.77
2024-04-30T07:13:37.169Z,5.52
2024-04-30T07:14:35.395Z,5.47
2024-04-30T07:15:35.355Z,5.39
2024-04-30T07:16:35.388Z,5.33
2024-04-30T07:17:35.426Z,5.27
2024-04-30T07:18:35.673Z,5.18
2024-04-30T07:19:35.608Z,4.98
2024-04-30T07:20:35.390Z,4.84
2024-04-30T07:21:35.365Z,4.63
2024-04-30T07:22:35.469Z,4.60
2024-04-30T07:23:35.370Z,4.14
2024-04-30T07:24:35.385Z,4.09
2024-04-30T07:25:35.391Z,3.94
2024-04-30T07:26:35.384Z,3.88
2024-04-30T07:27:35.388Z,3.86
2024-04-30T07:28:35.533Z,3.91
2024-04-30T07:29:35.479Z,3.69
2024-04-30T07:30:35.512Z,3.53
2024-04-30T07:31:37.622Z,3.31
2024-04-30T07:32:35.610Z,3.31
2024-04-30T07:33:35.634Z,3.27
2024-04-30T07:34:35.645Z,3.34
2024-04-30T07:35:35.555Z,3.39
2024-04-30T07:36:35.557Z,3.55
2024-04-30T07:37:35.581Z,3.62
2024-04-30T07:38:35.568Z,3.57
2024-04-30T07:39:35.575Z,3.54
2024-04-30T07:40:35.628Z,3.68
2024-04-30T07:41:35.590Z,3.73
2024-04-30T07:42:35.553Z,3.80
2024-04-30T07:43:35.652Z,3.76
2024-04-30T07:44:35.607Z,4.01
2024-04-30T07:45:35.600Z,4.07
2024-04-30T07:46:35.691Z,4.25
2024-04-30T07:47:35.641Z,4.32
2024-04-30T07:48:35.616Z,4.62
2024-04-30T07:49:35.700Z,4.69
2024-04-30T07:50:35.594Z,4.93
2024-04-30T07:51:35.580Z,4.77
2024-04-30T07:52:35.761Z,5.29
2024-04-30T07:53:35.602Z,5.77
2024-04-30T07:54:35.597Z,6.21
2024-04-30T07:55:35.727Z,5.44
2024-04-30T07:56:35.606Z,5.24
2024-04-30T07:57:35.586Z,5.25
2024-04-30T07:58:35.663Z,5.15
2024-04-30T07:59:35.605Z,5.12
2024-04-30T08:00:35.605Z,5.07
2024-04-30T08:01:35.632Z,4.78
2024-04-30T08:02:35.671Z,5.02
2024-04-30T08:03:35.623Z,4.82
2024-04-30T08:04:35.647Z,4.78
2024-04-30T08:05:42.744Z,4.66
2024-04-30T08:06:36.627Z,4.65
2024-04-30T08:07:35.724Z,3.98
2024-04-30T08:08:35.610Z,3.82
2024-04-30T08:09:35.618Z,3.76
2024-04-30T08:10:35.658Z,3.59
2024-04-30T08:11:35.646Z,3.75
2024-04-30T08:12:35.628Z,3.25
2024-04-30T08:13:35.668Z,3.12
2024-04-30T08:14:37.135Z,3.02
2024-04-30T08:15:35.629Z,2.70
2024-04-30T08:16:35.744Z,2.33
2024-04-30T08:17:35.774Z,2.26
2024-04-30T08:18:35.721Z,1.77
2024-04-30T08:19:35.719Z,1.65
2024-04-30T08:20:35.747Z,1.47
2024-04-30T08:21:35.789Z,1.46
2024-04-30T08:22:35.789Z,1.38
2024-04-30T08:23:35.795Z,1.27
2024-04-30T08:24:35.850Z,1.26
2024-04-30T08:25:36.009Z,1.18
2024-04-30T08:26:35.897Z,1.20
2024-04-30T08:27:35.948Z,1.23
2024-04-30T08:28:36.105Z,1.19
2024-04-30T08:29:36.054Z,1.13
2024-04-30T08:30:36.097Z,1.12
2024-04-30T08:31:36.155Z,1.12
2024-04-30T08:32:36.178Z,1.08
2024-04-30T08:33:36.412Z,1.01
2024-04-30T08:34:36.292Z,1.08
2024-04-30T08:35:36.300Z,1.16
2024-04-30T08:36:36.405Z,1.28
2024-04-30T08:37:40.414Z,1.34
2024-04-30T08:38:37.381Z,1.34
2024-04-30T08:39:36.365Z,1.32
2024-04-30T08:40:36.414Z,1.37
2024-04-30T08:41:36.376Z,1.48
2024-04-30T08:42:36.377Z,1.84
2024-04-30T08:43:36.399Z,1.96
2024-04-30T08:44:36.400Z,1.76
2024-04-30T08:45:36.394Z,1.94
2024-04-30T08:46:36.473Z,1.71
2024-04-30T08:47:36.463Z,1.69
2024-04-30T08:48:36.403Z,1.53
2024-04-30T08:49:46.248Z,1.14
2024-04-30T08:50:37.427Z,0.84
2024-04-30T08:51:36.402Z,0.57
2024-04-30T08:52:36.423Z,0.55
2024-04-30T08:53:36.387Z,0.60
2024-04-30T08:54:36.419Z,0.63
2024-04-30T08:55:36.513Z,0.75
2024-04-30T08:56:36.397Z,0.77
2024-04-30T08:57:36.404Z,0.73
2024-04-30T08:58:36.489Z,0.79
2024-04-30T08:59:36.424Z,0.88
2024-04-30T09:00:36.430Z,0.86
2024-04-30T09:01:36.425Z,0.86
2024-04-30T09:02:36.582Z,0.72
2024-04-30T09:03:36.532Z,0.70
2024-04-30T09:04:36.653Z,0.66
2024-04-30T09:05:36.647Z,0.54
2024-04-30T09:06:36.686Z,0.52
2024-04-30T09:07:37.020Z,0.56
2024-04-30T09:08:36.751Z,0.65
2024-04-30T09:09:36.786Z,0.72
2024-04-30T09:10:36.866Z,0.65
2024-04-30T09:11:36.911Z,0.55
2024-04-30T09:12:36.883Z,0.61
2024-04-30T09:13:37.089Z,0.68
2024-04-30T09:14:36.920Z,0.68
2024-04-30T09:15:36.917Z,0.70
2024-04-30T09:16:37.015Z,0.75
2024-04-30T09:17:36.984Z,0.79
2024-04-30T09:18:36.951Z,0.81
2024-04-30T09:19:37.010Z,0.69
2024-04-30T09:20:37.035Z,0.56
2024-04-30T09:21:37.096Z,0.53
2024-04-30T09:22:37.092Z,0.51
2024-04-30T09:23:37.085Z,0.51
2024-04-30T09:24:37.102Z,0.50
2024-04-30T09:25:37.364Z,0.53
2024-04-30T09:26:37.217Z,0.63
2024-04-30T09:27:37.218Z,0.69
2024-04-30T09:28:37.358Z,0.73
2024-04-30T09:29:38.401Z,0.73
2024-04-30T09:30:37.237Z,0.84
2024-04-30T09:31:37.465Z,0.79
2024-04-30T09:32:37.351Z,0.78
2024-04-30T09:33:37.405Z,0.77
2024-04-30T09:34:37.337Z,0.80
2024-04-30T09:35:37.320Z,0.77
2024-04-30T09:36:37.412Z,0.61
2024-04-30T09:37:37.462Z,0.52
2024-04-30T09:38:37.384Z,0.50
2024-04-30T09:39:37.392Z,0.50
2024-04-30T09:40:37.658Z,0.52
2024-04-30T09:41:37.480Z,0.62
2024-04-30T09:42:40.954Z,0.40
2024-04-30T09:43:37.655Z,0.46
2024-04-30T09:44:37.584Z,0.64
2024-04-30T09:45:37.615Z,0.56
2024-04-30T09:46:37.760Z,0.50
2024-04-30T09:47:37.626Z,0.50
2024-04-30T09:48:37.588Z,0.56
2024-04-30T09:49:37.678Z,0.70
2024-04-30T09:50:37.611Z,0.82
2024-04-30T09:51:37.946Z,1.04
2024-04-30T09:52:37.689Z,1.35
2024-04-30T09:53:37.606Z,1.58
2024-04-30T09:54:37.620Z,1.99
2024-04-30T09:55:37.909Z,2.31
2024-04-30T09:56:37.597Z,2.59
2024-04-30T09:57:37.618Z,2.73
2024-04-30T09:58:37.704Z,2.78
2024-04-30T09:59:37.634Z,2.93
2024-04-30T10:00:37.657Z,2.98
2024-04-30T10:01:37.656Z,2.72
2024-04-30T10:02:37.634Z,1.84
2024-04-30T10:03:37.624Z,1.91
2024-04-30T10:04:37.652Z,1.83
2024-04-30T10:05:37.615Z,1.72
2024-04-30T10:06:37.631Z,1.96
2024-04-30T10:07:37.651Z,2.06
2024-04-30T10:08:37.622Z,1.94
2024-04-30T10:09:37.647Z,2.01
2024-04-30T10:10:37.654Z,2.14
2024-04-30T10:11:37.655Z,2.18
2024-04-30T10:12:37.632Z,2.02
2024-04-30T10:13:37.634Z,1.86
2024-04-30T10:14:37.650Z,1.53
2024-04-30T10:15:37.648Z,1.63
2024-04-30T10:16:37.650Z,1.58
2024-04-30T10:17:37.784Z,1.74
2024-04-30T10:18:37.643Z,1.79
2024-04-30T10:19:37.691Z,1.89
2024-04-30T10:20:37.635Z,2.09
2024-04-30T10:21:37.686Z,1.36
2024-04-30T10:22:37.700Z,1.30
2024-04-30T10:23:37.663Z,1.47
2024-04-30T10:24:37.658Z,1.55
2024-04-30T10:25:37.679Z,1.62
2024-04-30T10:26:37.653Z,1.65
2024-04-30T10:27:37.663Z,1.58
2024-04-30T10:28:37.736Z,1.62
2024-04-30T10:29:37.646Z,1.71
2024-04-30T10:30:37.659Z,1.76
2024-04-30T10:31:37.812Z,2.01
2024-04-30T10:32:37.868Z,2.13
2024-04-30T10:33:37.942Z,1.92
2024-04-30T10:34:38.019Z,2.07
2024-04-30T10:35:38.032Z,2.28
2024-04-30T10:36:38.103Z,2.22
2024-04-30T10:37:38.254Z,2.34
2024-04-30T10:38:38.221Z,2.27
2024-04-30T10:39:38.274Z,1.97
2024-04-30T10:40:38.505Z,1.54
2024-04-30T10:41:38.413Z,1.35
2024-04-30T10:42:38.433Z,1.08
2024-04-30T10:43:38.631Z,0.95
2024-04-30T10:44:38.613Z,0.97
2024-04-30T10:45:38.653Z,0.94
2024-04-30T10:46:38.760Z,0.92
2024-04-30T10:47:38.844Z,0.82
2024-04-30T10:48:38.879Z,0.74
2024-04-30T10:49:38.955Z,0.69
2024-04-30T10:50:38.967Z,0.64
2024-04-30T10:51:39.047Z,0.60
2024-04-30T10:52:39.165Z,0.53
2024-04-30T10:53:39.179Z,0.50
2024-04-30T10:54:39.262Z,0.51
2024-04-30T10:55:39.368Z,0.52
2024-04-30T10:56:39.400Z,0.51
2024-04-30T10:57:39.428Z,0.50
2024-04-30T10:58:39.530Z,0.51
2024-04-30T10:59:39.544Z,0.50
2024-04-30T11:00:39.615Z,0.50
2024-04-30T11:01:39.684Z,0.50
2024-04-30T11:02:39.750Z,0.54
2024-04-30T11:03:39.793Z,0.56
2024-04-30T11:04:39.951Z,0.55
2024-04-30T11:05:39.949Z,0.52
2024-04-30T11:06:40.038Z,0.54
2024-04-30T11:07:40.114Z,0.55
2024-04-30T11:08:40.083Z,0.60
2024-04-30T11:09:40.168Z,0.66
2024-04-30T11:10:40.256Z,0.62
2024-04-30T11:11:40.245Z,0.66
2024-04-30T11:12:40.277Z,0.74
2024-04-30T11:13:40.406Z,0.81
2024-04-30T11:14:40.370Z,0.73
2024-04-30T11:15:40.407Z,0.70
2024-04-30T11:16:40.442Z,0.72
2024-04-30T11:17:40.561Z,0.56
2024-04-30T11:18:40.546Z,0.40
2024-04-30T11:19:40.575Z,0.44
2024-04-30T11:20:40.540Z,0.52
2024-04-30T11:21:40.561Z,0.55
2024-04-30T11:22:40.761Z,0.60
2024-04-30T11:23:40.600Z,0.61
2024-04-30T11:24:40.616Z,0.61
2024-04-30T11:25:40.619Z,0.62
2024-04-30T11:26:40.635Z,0.61
2024-04-30T11:27:40.617Z,0.49
2024-04-30T11:28:40.705Z,0.46
2024-04-30T11:29:40.890Z,0.56
2024-04-30T11:30:40.796Z,0.62
2024-04-30T11:31:40.669Z,0.72
2024-04-30T11:32:40.742Z,0.76
2024-04-30T11:33:40.652Z,0.71
2024-04-30T11:34:40.770Z,0.65
2024-04-30T11:35:40.612Z,0.45
2024-04-30T11:36:40.614Z,0.57
2024-04-30T11:37:40.635Z,0.65
2024-04-30T11:38:40.768Z,0.83
2024-04-30T11:39:40.653Z,0.99
2024-04-30T11:40:40.692Z,0.86
2024-04-30T11:41:45.823Z,0.86
2024-04-30T11:42:44.876Z,0.86
2024-04-30T11:43:40.720Z,0.87
2024-04-30T11:44:40.623Z,0.87
2024-04-30T11:45:40.641Z,0.89
2024-04-30T11:46:40.735Z,0.95
2024-04-30T11:47:40.682Z,0.99
2024-04-30T11:48:40.738Z,1.07
2024-04-30T11:49:40.803Z,1.09
2024-04-30T11:50:40.648Z,1.13
2024-04-30T11:51:40.628Z,1.17
2024-04-30T11:52:41.012Z,1.21
2024-04-30T11:53:40.715Z,1.22
2024-04-30T11:54:40.676Z,1.17
2024-04-30T11:55:40.719Z,1.27
2024-04-30T11:56:40.692Z,1.23
2024-04-30T11:57:40.661Z,1.42
2024-04-30T11:58:40.713Z,1.39
2024-04-30T11:59:40.656Z,1.35
2024-04-30T12:00:40.856Z,1.41
2024-04-30T12:01:40.679Z,1.33
2024-04-30T12:02:40.720Z,1.35
2024-04-30T12:03:40.683Z,1.37
2024-04-30T12:04:40.934Z,1.49
2024-04-30T12:05:40.732Z,1.64
2024-04-30T12:06:40.740Z,1.74
2024-04-30T12:07:40.815Z,1.83
2024-04-30T12:08:40.817Z,1.82
2024-04-30T12:09:40.846Z,1.91
2024-04-30T12:10:40.943Z,1.95
2024-04-30T12:11:41.023Z,2.03
2024-04-30T12:12:40.973Z,2.13
2024-04-30T12:13:41.047Z,2.78
2024-04-30T12:14:41.059Z,2.92
2024-04-30T12:15:41.108Z,2.54
2024-04-30T12:16:43.070Z,2.52
2024-04-30T12:17:41.260Z,2.72
2024-04-30T12:18:41.114Z,2.85
2024-04-30T12:19:41.210Z,2.96
2024-04-30T12:20:41.136Z,2.81
2024-04-30T12:21:41.137Z,2.50
2024-04-30T12:22:41.208Z,2.42
2024-04-30T12:23:41.137Z,2.11
2024-04-30T12:24:41.136Z,2.18
2024-04-30T12:25:41.183Z,2.29
2024-04-30T12:26:41.121Z,2.27
2024-04-30T12:27:41.144Z,2.53
2024-04-30T12:28:41.186Z,2.61
2024-04-30T12:29:41.138Z,2.43
2024-04-30T12:30:41.137Z,2.23
2024-04-30T12:31:41.343Z,2.43
2024-04-30T12:32:41.171Z,2.67
2024-04-30T12:33:41.261Z,2.60
2024-04-30T12:34:41.305Z,2.50
2024-04-30T12:35:41.159Z,2.46
2024-04-30T12:36:41.152Z,2.23
2024-04-30T12:37:41.196Z,2.58
2024-04-30T12:38:41.147Z,2.94
2024-04-30T12:39:41.148Z,2.72
2024-04-30T12:40:41.200Z,2.79
2024-04-30T12:41:41.171Z,2.77
2024-04-30T12:42:41.170Z,2.91
2024-04-30T12:43:41.171Z,2.45
2024-04-30T12:44:41.195Z,2.36
2024-04-30T12:45:41.153Z,2.47
2024-04-30T12:46:41.244Z,2.47
2024-04-30T12:47:41.245Z,2.45
2024-04-30T12:48:41.238Z,2.48
2024-04-30T12:49:41.335Z,2.47
2024-04-30T12:50:41.171Z,2.74
2024-04-30T12:51:41.171Z,2.59
2024-04-30T12:52:41.206Z,2.38
2024-04-30T12:53:41.152Z,2.33
2024-04-30T12:54:41.160Z,2.57
2024-04-30T12:55:41.207Z,2.82
2024-04-30T12:56:41.176Z,2.65
2024-04-30T12:57:41.203Z,2.31
2024-04-30T12:58:41.212Z,2.29
2024-04-30T12:59:41.191Z,2.33
2024-04-30T13:00:41.175Z,2.41
2024-04-30T13:01:41.207Z,2.42
2024-04-30T13:02:41.204Z,2.45
2024-04-30T13:03:41.184Z,2.40
2024-04-30T13:04:41.218Z,2.47
2024-04-30T13:05:41.178Z,2.41
2024-04-30T13:06:41.259Z,2.47
2024-04-30T13:07:41.235Z,2.38
2024-04-30T13:08:41.177Z,2.25
2024-04-30T13:09:42.551Z,2.19
2024-04-30T13:10:41.356Z,2.17
2024-04-30T13:11:41.222Z,2.28
2024-04-30T13:12:41.183Z,2.31
2024-04-30T13:13:41.304Z,2.18
2024-04-30T13:14:41.184Z,2.18
2024-04-30T13:15:41.165Z,2.30
2024-04-30T13:16:41.289Z,2.68
2024-04-30T13:17:41.215Z,2.68
2024-04-30T13:18:41.254Z,2.61
2024-04-30T13:19:41.219Z,2.54
2024-04-30T13:20:41.199Z,2.65
2024-04-30T13:21:41.232Z,2.72
2024-04-30T13:22:41.374Z,2.64
2024-04-30T13:23:41.335Z,2.53
2024-04-30T13:24:41.365Z,2.56
2024-04-30T13:25:41.505Z,2.37
2024-04-30T13:26:41.472Z,2.42
2024-04-30T13:27:41.503Z,2.42
2024-04-30T13:28:41.664Z,2.38
2024-04-30T13:29:41.613Z,2.47
2024-04-30T13:30:41.639Z,2.39
2024-04-30T13:31:41.748Z,2.28
2024-04-30T13:32:41.787Z,2.22
2024-04-30T13:33:41.768Z,2.17
2024-04-30T13:34:41.882Z,2.19
2024-04-30T13:35:41.842Z,2.31
2024-04-30T13:36:41.914Z,2.23
2024-04-30T13:37:42.138Z,2.25
2024-04-30T13:38:41.984Z,2.22
2024-04-30T13:39:42.099Z,2.05
2024-04-30T13:40:42.165Z,2.06
2024-04-30T13:41:42.127Z,2.10
2024-04-30T13:42:42.230Z,2.34
2024-04-30T13:43:42.258Z,2.21
2024-04-30T13:44:42.316Z,2.06
2024-04-30T13:45:42.324Z,2.02
2024-04-30T13:46:42.454Z,2.05
2024-04-30T13:47:42.481Z,2.00
2024-04-30T13:48:42.525Z,2.01
2024-04-30T13:49:42.629Z,1.97
2024-04-30T13:50:42.518Z,1.87
2024-04-30T13:51:42.597Z,1.88
2024-04-30T13:52:42.645Z,1.82
2024-04-30T13:53:42.674Z,1.90
2024-04-30T13:54:42.732Z,1.85
2024-04-30T13:55:42.827Z,1.83
2024-04-30T13:56:42.853Z,1.78
2024-04-30T13:57:42.860Z,1.79
2024-04-30T13:58:43.021Z,1.77
2024-04-30T13:59:43.015Z,1.95
2024-04-30T14:00:43.044Z,2.02
2024-04-30T14:01:43.171Z,2.07
2024-04-30T14:02:43.163Z,2.22
2024-04-30T14:03:43.174Z,2.26
2024-04-30T14:04:43.254Z,2.28
2024-04-30T14:05:43.227Z,2.45
2024-04-30T14:06:43.264Z,2.50
2024-04-30T14:07:43.383Z,2.24
2024-04-30T14:08:43.325Z,2.55
2024-04-30T14:09:43.396Z,2.65
2024-04-30T14:10:43.549Z,2.50
2024-04-30T14:11:43.470Z,2.90
2024-04-30T14:12:43.522Z,3.00
2024-04-30T14:13:43.619Z,3.00
2024-04-30T14:14:43.594Z,3.04
2024-04-30T14:15:43.611Z,3.09
2024-04-30T14:16:43.876Z,3.15
2024-04-30T14:17:43.707Z,3.18
2024-04-30T14:18:43.881Z,3.24
2024-04-30T14:19:43.862Z,3.37
2024-04-30T14:20:43.834Z,3.25
2024-04-30T14:21:43.836Z,3.34
2024-04-30T14:22:44.030Z,3.32
2024-04-30T14:23:43.955Z,3.33
2024-04-30T14:24:43.975Z,3.41
2024-04-30T14:25:44.379Z,3.37
2024-04-30T14:26:44.086Z,3.43
2024-04-30T14:27:44.149Z,3.67
2024-04-30T14:28:44.184Z,3.78
2024-04-30T14:29:44.212Z,3.92
2024-04-30T14:30:44.244Z,3.87
2024-04-30T14:31:44.355Z,3.81
2024-04-30T14:32:44.451Z,3.67
2024-04-30T14:33:44.402Z,3.63
2024-04-30T14:34:44.488Z,3.60
2024-04-30T14:35:44.487Z,3.65
2024-04-30T14:36:44.533Z,3.73
2024-04-30T14:37:44.621Z,3.88
2024-04-30T14:38:44.615Z,3.87
2024-04-30T14:39:44.662Z,3.81
2024-04-30T14:40:44.773Z,3.91
2024-04-30T14:41:44.755Z,3.86
2024-04-30T14:42:44.822Z,4.13
2024-04-30T14:43:45.824Z,4.20
2024-04-30T14:44:44.893Z,4.23
2024-04-30T14:45:44.960Z,4.22
2024-04-30T14:46:45.039Z,4.31
2024-04-30T14:47:45.848Z,4.35
2024-04-30T14:48:45.180Z,4.26
2024-04-30T14:49:45.396Z,4.33
2024-04-30T14:50:45.220Z,4.33
2024-04-30T14:51:45.251Z,4.37
2024-04-30T14:52:45.848Z,4.66
2024-04-30T14:53:45.357Z,4.56
2024-04-30T14:54:45.453Z,4.34
2024-04-30T14:55:45.456Z,4.30
2024-04-30T14:56:45.476Z,4.47
2024-04-30T14:57:45.549Z,4.55
2024-04-30T14:58:45.678Z,4.56
2024-04-30T14:59:45.680Z,4.39
2024-04-30T15:00:45.762Z,4.52
2024-04-30T15:01:45.847Z,4.72
2024-04-30T15:02:45.821Z,4.92
2024-04-30T15:03:45.855Z,5.31
2024-04-30T15:04:45.967Z,5.50
2024-04-30T15:05:45.933Z,5.90
2024-04-30T15:06:45.991Z,6.33
2024-04-30T15:07:46.087Z,6.46
2024-04-30T15:08:46.068Z,7.11
2024-04-30T15:09:46.162Z,7.47
2024-04-30T15:10:46.240Z,7.71
2024-04-30T15:11:46.191Z,8.35
2024-04-30T15:12:46.244Z,8.51
2024-04-30T15:13:46.323Z,9.32
2024-04-30T15:14:46.344Z,9.74
2024-04-30T15:15:46.352Z,10.36
2024-04-30T15:16:47.157Z,10.39
2024-04-30T15:17:46.538Z,10.96
2024-04-30T15:18:46.515Z,11.54
2024-04-30T15:19:46.620Z,12.06
2024-04-30T15:20:46.582Z,12.24
2024-04-30T15:21:46.667Z,12.63
2024-04-30T15:22:46.718Z,12.37
2024-04-30T15:23:46.748Z,13.08
2024-04-30T15:24:46.791Z,13.81
2024-04-30T15:25:46.881Z,14.17
2024-04-30T15:26:46.857Z,14.63
2024-04-30T15:27:46.889Z,15.42
2024-04-30T15:28:46.997Z,15.17
2024-04-30T15:29:46.995Z,15.39
2024-04-30T15:30:47.013Z,16.20
2024-04-30T15:31:47.836Z,16.93
2024-04-30T15:32:47.086Z,16.76
2024-04-30T15:33:47.321Z,17.94
2024-04-30T15:34:47.290Z,17.85
2024-04-30T15:35:47.152Z,18.45
2024-04-30T15:36:47.288Z,18.28
2024-04-30T15:37:47.347Z,18.40
2024-04-30T15:38:47.305Z,18.33
2024-04-30T15:39:47.404Z,19.00
2024-04-30T15:40:47.435Z,19.21
2024-04-30T15:41:47.377Z,19.82
2024-04-30T15:42:47.425Z,19.79
2024-04-30T15:43:47.503Z,20.18
2024-04-30T15:44:47.669Z,21.42
2024-04-30T15:45:47.548Z,20.78
2024-04-30T15:46:47.628Z,20.55
2024-04-30T15:47:47.713Z,21.14
2024-04-30T15:48:47.734Z,21.67
2024-04-30T15:49:47.805Z,21.25
2024-04-30T15:50:47.700Z,21.14
2024-04-30T15:51:47.752Z,21.45
2024-04-30T15:52:47.840Z,21.38
2024-04-30T15:53:47.804Z,21.52
2024-04-30T15:54:47.873Z,21.82
2024-04-30T15:55:53.655Z,21.97
2024-04-30T15:56:54.332Z,22.01
2024-04-30T15:57:48.922Z,22.05
2024-04-30T15:58:48.054Z,22.27
2024-04-30T15:59:47.914Z,22.60
2024-04-30T16:00:47.946Z,23.13
2024-04-30T16:01:47.968Z,23.55
2024-04-30T16:02:47.901Z,23.33
2024-04-30T16:03:47.912Z,23.90
2024-04-30T16:04:47.996Z,23.58
2024-04-30T16:05:47.904Z,23.46
2024-04-30T16:06:47.904Z,23.23
2024-04-30T16:07:47.937Z,23.16
2024-04-30T16:08:47.885Z,23.12
2024-04-30T16:09:47.967Z,22.97
2024-04-30T16:10:48.006Z,22.83
2024-04-30T16:11:47.932Z,22.99
2024-04-30T16:12:47.888Z,22.84
2024-04-30T16:13:48.009Z,23.17
2024-04-30T16:14:47.916Z,22.80
2024-04-30T16:15:50.361Z,22.76
2024-04-30T16:16:47.956Z,22.81
2024-04-30T16:17:48.820Z,22.85
2024-04-30T16:18:48.416Z,23.20
2024-04-30T16:19:48.019Z,23.63
2024-04-30T16:20:47.907Z,23.89
2024-04-30T16:21:47.908Z,23.76
2024-04-30T16:22:47.951Z,23.52
2024-04-30T16:23:47.903Z,23.59
2024-04-30T16:24:47.886Z,23.60
2024-04-30T16:25:47.962Z,22.73
2024-04-30T16:26:47.924Z,23.10
2024-04-30T16:27:47.903Z,22.82
2024-04-30T16:28:48.008Z,22.48
2024-04-30T16:29:47.946Z,22.58
2024-04-30T16:30:47.896Z,22.53
2024-04-30T16:31:47.925Z,21.94
2024-04-30T16:32:48.061Z,22.06
2024-04-30T16:33:47.965Z,21.66
2024-04-30T16:34:47.916Z,21.70
2024-04-30T16:35:47.910Z,21.72
2024-04-30T16:36:47.932Z,21.79
2024-04-30T16:37:47.905Z,21.50
2024-04-30T16:38:47.899Z,21.50
2024-04-30T16:39:47.971Z,20.99
2024-04-30T16:40:47.956Z,21.21
2024-04-30T16:41:48.013Z,21.13
2024-04-30T16:42:47.943Z,20.79
2024-04-30T16:43:47.900Z,20.93
2024-04-30T16:44:48.852Z,21.26
2024-04-30T16:45:49.050Z,21.31
2024-04-30T16:46:47.917Z,21.16
2024-04-30T16:47:48.060Z,21.32
2024-04-30T16:48:47.967Z,20.89
2024-04-30T16:49:47.944Z,20.83
2024-04-30T16:50:47.945Z,20.85
2024-04-30T16:51:48.003Z,20.75
2024-04-30T16:52:47.949Z,20.75
2024-04-30T16:53:47.939Z,21.05
2024-04-30T16:54:47.981Z,20.46
2024-04-30T16:55:47.954Z,20.85
2024-04-30T16:56:47.945Z,20.65
2024-04-30T16:57:47.962Z,20.49
2024-04-30T16:58:47.934Z,20.38
2024-04-30T16:59:47.927Z,20.01
2024-04-30T17:00:47.999Z,20.05
2024-04-30T17:01:47.975Z,20.54
2024-04-30T17:02:47.983Z,20.10
2024-04-30T17:03:48.015Z,20.22
2024-04-30T17:04:48.012Z,19.95
2024-04-30T17:05:48.003Z,19.80
2024-04-30T17:06:48.124Z,19.57
2024-04-30T17:07:48.071Z,19.46
2024-04-30T17:08:48.139Z,19.63
2024-04-30T17:09:48.207Z,19.49
2024-04-30T17:10:48.189Z,19.47
2024-04-30T17:11:48.234Z,19.39
2024-04-30T17:12:48.299Z,19.55
2024-04-30T17:13:48.275Z,19.46
2024-04-30T17:14:48.323Z,19.26
2024-04-30T17:15:48.400Z,19.41
2024-04-30T17:16:48.421Z,19.32
2024-04-30T17:17:48.419Z,18.85
2024-04-30T17:18:48.530Z,18.84
2024-04-30T17:19:48.498Z,19.10
2024-04-30T17:20:48.534Z,18.70